Time;durP1;ratioP1;P1;durP2;ratioP2;P2;SDS_P1;SDS_P2;PMS_P1;PMS_P2;Temp;Humidity;BMP_temperature;BMP_pressure;BME280_temperature;BME280_humidity;BME280_pressure;Samples;Min_cycle;Max_cycle;Signal;HPM_P1;HPM_P2
2024/01/26 00:02:00;;;;;;;944.22;88.10;;;;;;;;;;4750990;29;20065;-80
2024/01/26 00:04:27;;;;;;;958.58;89.72;;;;;;;;;;4761297;29;20056;-80
2024/01/26 00:06:54;;;;;;;991.40;93.88;;;;;;;;;;4763202;29;20104;-79
2024/01/26 00:09:21;;;;;;;935.00;87.07;;;;;;;;;;4762734;29;20052;-80
2024/01/26 00:11:49;;;;;;;950.35;90.10;;;;;;;;;;4761150;29;20041;-81
2024/01/26 00:14:17;;;;;;;982.17;93.43;;;;;;;;;;4763352;29;20092;-80
2024/01/26 00:16:44;;;;;;;889.65;81.75;;;;;;;;;;4762674;29;20213;-81
2024/01/26 00:19:12;;;;;;;883.60;81.05;;;;;;;;;;4766375;29;20093;-80
2024/01/26 00:21:39;;;;;;;893.65;81.97;;;;;;;;;;4767872;29;20061;-80
2024/01/26 00:24:06;;;;;;;961.75;90.60;;;;;;;;;;4761787;29;20041;-80
2024/01/26 00:26:32;;;;;;;942.00;87.32;;;;;;;;;;4760686;29;20132;-81
2024/01/26 00:28:59;;;;;;;950.55;88.90;;;;;;;;;;4762860;29;20041;-80
2024/01/26 00:31:26;;;;;;;946.97;88.38;;;;;;;;;;4761441;29;20129;-80
2024/01/26 00:33:53;;;;;;;934.78;86.63;;;;;;;;;;4762276;29;21038;-80
2024/01/26 00:36:20;;;;;;;916.60;85.30;;;;;;;;;;4765363;29;20029;-80
2024/01/26 00:38:47;;;;;;;949.60;88.72;;;;;;;;;;4762489;29;20041;-79
2024/01/26 00:41:13;;;;;;;935.88;87.45;;;;;;;;;;4760111;29;21158;-80
2024/01/26 00:43:41;;;;;;;944.55;88.07;;;;;;;;;;4759334;29;20041;-81
2024/01/26 00:46:08;;;;;;;967.42;90.55;;;;;;;;;;4759537;29;20045;-81
2024/01/26 00:48:34;;;;;;;951.40;88.60;;;;;;;;;;4761609;29;20048;-79
2024/01/26 00:51:06;;;;;;;947.92;88.78;;;;;;;;;;4738071;29;20898;-80
2024/01/26 00:53:33;;;;;;;986.92;93.07;;;;;;;;;;4760777;29;20057;-80
2024/01/26 00:55:59;;;;;;;946.30;87.78;;;;;;;;;;4761057;29;20049;-80
2024/01/26 00:58:26;;;;;;;976.90;91.28;;;;;;;;;;4760098;29;20064;-79
2024/01/26 01:00:53;;;;;;;943.33;88.07;;;;;;;;;;4759894;29;20163;-80
2024/01/26 01:03:23;;;;;;;947.83;88.30;;;;;;;;;;4762113;29;21282;-80
2024/01/26 01:05:51;;;;;;;958.78;89.10;;;;;;;;;;4760534;29;20124;-79
2024/01/26 01:08:18;;;;;;;994.00;93.28;;;;;;;;;;4760738;29;21008;-79
2024/01/26 01:10:44;;;;;;;936.47;86.82;;;;;;;;;;4755895;29;20041;-80
2024/01/26 01:13:12;;;;;;;964.33;90.07;;;;;;;;;;4759419;29;20055;-80
2024/01/26 01:15:40;;;;;;;929.30;86.20;;;;;;;;;;4761407;29;20045;-80
2024/01/26 01:18:08;;;;;;;943.65;87.82;;;;;;;;;;4762531;29;20063;-80
2024/01/26 01:20:35;;;;;;;912.70;84.10;;;;;;;;;;4766101;29;20197;-80
2024/01/26 01:23:02;;;;;;;923.53;86.13;;;;;;;;;;4764940;29;21535;-80
2024/01/26 01:25:29;;;;;;;931.13;86.40;;;;;;;;;;4766622;29;21122;-80
2024/01/26 01:27:56;;;;;;;964.47;90.22;;;;;;;;;;4763280;29;20193;-80
2024/01/26 01:30:22;;;;;;;950.40;89.10;;;;;;;;;;4761589;29;20049;-81
2024/01/26 01:32:50;;;;;;;968.33;90.85;;;;;;;;;;4758675;29;20839;-80
2024/01/26 01:35:17;;;;;;;938.78;87.40;;;;;;;;;;4761189;29;21031;-80
2024/01/26 01:37:44;;;;;;;976.03;91.32;;;;;;;;;;4758394;29;20073;-80
2024/01/26 01:40:11;;;;;;;951.83;88.90;;;;;;;;;;4758418;29;21020;-80
2024/01/26 01:42:37;;;;;;;951.80;88.53;;;;;;;;;;4758173;29;20055;-79
2024/01/26 01:45:12;;;;;;;936.17;87.00;;;;;;;;;;4759748;29;20049;-80
2024/01/26 01:47:39;;;;;;;949.58;88.15;;;;;;;;;;4758767;29;20033;-80
2024/01/26 01:50:08;;;;;;;947.50;88.03;;;;;;;;;;4760479;29;20136;-80
2024/01/26 01:52:39;;;;;;;956.33;88.88;;;;;;;;;;4755331;29;21077;-80
2024/01/26 01:55:11;;;;;;;969.13;90.88;;;;;;;;;;4747198;29;20803;-79
2024/01/26 01:57:40;;;;;;;984.95;92.32;;;;;;;;;;4741874;29;20114;-80
2024/01/26 02:00:15;;;;;;;972.72;90.93;;;;;;;;;;4756690;29;20151;-80
2024/01/26 02:05:43;;;;;;;818.00;71.75;;;;;;;;;;4739549;29;20054;-82
2024/01/26 02:08:10;;;;;;;842.13;74.75;;;;;;;;;;4728659;29;20076;-82
2024/01/26 02:10:37;;;;;;;828.50;73.00;;;;;;;;;;4731732;29;21258;-82
2024/01/26 02:13:04;;;;;;;834.40;74.22;;;;;;;;;;4709011;29;20050;-82
2024/01/26 02:15:30;;;;;;;866.40;77.63;;;;;;;;;;4726756;29;20078;-82
2024/01/26 02:17:57;;;;;;;818.63;72.00;;;;;;;;;;4723724;29;20050;-82
2024/01/26 02:20:24;;;;;;;833.72;74.50;;;;;;;;;;4724033;29;20905;-82
2024/01/26 02:23:09;;;;;;;894.80;81.45;;;;;;;;;;4731856;29;20978;-82
2024/01/26 02:25:35;;;;;;;856.53;77.22;;;;;;;;;;4741441;29;20551;-82
2024/01/26 02:28:02;;;;;;;831.17;74.05;;;;;;;;;;4728697;29;20054;-83
2024/01/26 02:30:33;;;;;;;849.90;75.80;;;;;;;;;;4710882;29;20050;-82
2024/01/26 02:33:00;;;;;;;854.42;76.65;;;;;;;;;;4736583;29;20053;-82
2024/01/26 02:35:26;;;;;;;882.03;79.47;;;;;;;;;;4738981;29;20038;-82
2024/01/26 02:37:53;;;;;;;880.92;79.28;;;;;;;;;;4722171;29;20038;-83
2024/01/26 02:40:20;;;;;;;857.88;76.35;;;;;;;;;;4724461;29;20928;-82
2024/01/26 02:42:47;;;;;;;861.28;76.57;;;;;;;;;;4722788;29;20049;-82
2024/01/26 02:45:14;;;;;;;820.33;71.82;;;;;;;;;;4739480;29;20947;-82
2024/01/26 02:47:40;;;;;;;838.17;74.30;;;;;;;;;;4725535;29;20195;-82
2024/01/26 02:50:07;;;;;;;852.97;76.43;;;;;;;;;;4738596;29;20989;-82
2024/01/26 02:52:34;;;;;;;843.13;74.95;;;;;;;;;;4726485;29;20038;-82
2024/01/26 02:55:01;;;;;;;815.78;72.00;;;;;;;;;;4729383;29;20076;-82
2024/01/26 02:57:27;;;;;;;833.50;74.13;;;;;;;;;;4725040;29;20161;-83
2024/01/26 02:59:54;;;;;;;815.75;71.75;;;;;;;;;;4733980;29;20073;-82
2024/01/26 03:02:20;;;;;;;824.25;72.32;;;;;;;;;;4728860;29;20971;-82
2024/01/26 03:04:47;;;;;;;801.40;70.03;;;;;;;;;;4739489;29;21164;-83
2024/01/26 03:07:14;;;;;;;798.42;69.72;;;;;;;;;;4746784;29;20045;-83
2024/01/26 03:09:41;;;;;;;849.90;75.53;;;;;;;;;;4740386;29;21286;-83
2024/01/26 03:12:08;;;;;;;836.78;74.25;;;;;;;;;;4745730;29;20562;-83
2024/01/26 03:14:34;;;;;;;836.20;74.65;;;;;;;;;;4742851;29;20820;-83
2024/01/26 03:17:01;;;;;;;845.78;75.43;;;;;;;;;;4740665;29;20283;-83
2024/01/26 03:19:28;;;;;;;838.72;74.65;;;;;;;;;;4728550;29;20939;-83
2024/01/26 03:21:54;;;;;;;830.42;73.88;;;;;;;;;;4746013;29;20141;-83
2024/01/26 03:24:21;;;;;;;840.78;74.38;;;;;;;;;;4728277;29;20049;-83
2024/01/26 03:26:48;;;;;;;837.00;74.18;;;;;;;;;;4745943;29;20141;-83
2024/01/26 03:29:15;;;;;;;785.13;67.95;;;;;;;;;;4764808;29;20048;-83
2024/01/26 03:31:41;;;;;;;807.60;70.82;;;;;;;;;;4748912;29;20647;-82
2024/01/26 03:34:08;;;;;;;838.08;74.38;;;;;;;;;;4747154;29;20064;-82
2024/01/26 03:36:35;;;;;;;823.80;73.20;;;;;;;;;;4764413;29;20037;-82
2024/01/26 03:39:03;;;;;;;826.55;73.30;;;;;;;;;;4733644;29;20045;-82
2024/01/26 03:41:30;;;;;;;827.53;73.43;;;;;;;;;;4766652;29;20134;-82
2024/01/26 03:43:57;;;;;;;792.20;69.40;;;;;;;;;;4734508;29;20042;-82
2024/01/26 03:46:25;;;;;;;804.58;70.38;;;;;;;;;;4769110;29;20145;-82
2024/01/26 03:48:51;;;;;;;781.45;68.30;;;;;;;;;;4751340;29;20038;-82
2024/01/26 03:51:18;;;;;;;794.38;69.50;;;;;;;;;;4766858;29;20144;-82
2024/01/26 03:53:45;;;;;;;857.17;76.28;;;;;;;;;;4764118;29;20241;-83
2024/01/26 03:56:11;;;;;;;879.30;79.05;;;;;;;;;;4743630;29;20042;-83
2024/01/26 03:58:38;;;;;;;841.20;74.78;;;;;;;;;;4744490;29;20045;-82
2024/01/26 04:01:05;;;;;;;860.45;77.22;;;;;;;;;;4744445;29;20042;-82
2024/01/26 04:03:32;;;;;;;857.10;76.53;;;;;;;;;;4744757;29;21008;-83
2024/01/26 04:05:59;;;;;;;841.10;74.75;;;;;;;;;;4760063;29;20328;-82
2024/01/26 04:08:26;;;;;;;838.35;74.68;;;;;;;;;;4761526;29;21001;-83
2024/01/26 04:10:53;;;;;;;820.28;72.80;;;;;;;;;;4744189;29;20053;-83
2024/01/26 04:13:19;;;;;;;845.97;75.28;;;;;;;;;;4747377;29;20068;-83
2024/01/26 04:15:47;;;;;;;846.45;75.30;;;;;;;;;;4730586;29;20072;-82
2024/01/26 04:18:13;;;;;;;849.97;76.03;;;;;;;;;;4743908;29;20045;-82
2024/01/26 04:20:41;;;;;;;827.95;73.68;;;;;;;;;;4763362;29;20144;-83
2024/01/26 04:23:07;;;;;;;850.45;76.53;;;;;;;;;;4760585;29;20056;-82
2024/01/26 04:25:34;;;;;;;841.40;75.18;;;;;;;;;;4745365;29;20062;-83
2024/01/26 04:28:01;;;;;;;858.08;77.28;;;;;;;;;;4764885;29;20854;-82
2024/01/26 04:30:28;;;;;;;891.33;81.13;;;;;;;;;;4740652;29;20976;-83
2024/01/26 04:32:55;;;;;;;902.70;81.75;;;;;;;;;;4746138;29;21008;-83
2024/01/26 04:35:22;;;;;;;851.42;75.80;;;;;;;;;;4745423;29;20865;-82
2024/01/26 04:37:48;;;;;;;839.47;74.43;;;;;;;;;;4759171;29;21177;-82
2024/01/26 04:40:15;;;;;;;843.28;74.72;;;;;;;;;;4744964;29;21182;-82
2024/01/26 04:42:42;;;;;;;879.15;79.57;;;;;;;;;;4760420;29;20041;-82
2024/01/26 04:45:08;;;;;;;850.95;75.55;;;;;;;;;;4746092;29;20053;-83
2024/01/26 04:47:35;;;;;;;872.22;78.55;;;;;;;;;;4743265;29;20152;-82
2024/01/26 04:50:02;;;;;;;668.70;56.25;;;;;;;;;;4756791;29;21072;-83
2024/01/26 04:52:29;;;;;;;848.15;76.32;;;;;;;;;;4739979;29;20041;-82
2024/01/26 04:54:56;;;;;;;809.28;72.28;;;;;;;;;;4745689;29;20061;-83
2024/01/26 04:57:23;;;;;;;852.30;75.80;;;;;;;;;;4729998;29;20976;-82
2024/01/26 04:59:50;;;;;;;833.38;73.55;;;;;;;;;;4745629;29;20123;-82
2024/01/26 05:02:16;;;;;;;872.40;78.35;;;;;;;;;;4745127;29;20038;-82
2024/01/26 05:04:44;;;;;;;853.97;76.18;;;;;;;;;;4760674;29;20056;-83
2024/01/26 05:07:11;;;;;;;879.55;79.35;;;;;;;;;;4744380;29;20042;-82
2024/01/26 05:09:38;;;;;;;791.50;69.85;;;;;;;;;;4747430;29;20047;-83
2024/01/26 05:12:05;;;;;;;820.60;72.80;;;;;;;;;;4746779;29;20041;-82
2024/01/26 05:14:33;;;;;;;820.90;73.43;;;;;;;;;;4746910;29;20069;-83
2024/01/26 05:17:00;;;;;;;819.75;73.05;;;;;;;;;;4748726;29;20072;-83
2024/01/26 05:19:27;;;;;;;829.70;73.65;;;;;;;;;;4746449;29;20050;-82
2024/01/26 05:21:54;;;;;;;818.83;71.65;;;;;;;;;;4746222;29;20058;-82
2024/01/26 05:24:20;;;;;;;834.38;73.97;;;;;;;;;;4742775;29;20892;-85
2024/01/26 05:26:47;;;;;;;816.90;71.55;;;;;;;;;;4730884;29;21075;-82
2024/01/26 05:29:16;;;;;;;844.53;74.65;;;;;;;;;;4760731;29;20053;-82
2024/01/26 05:31:42;;;;;;;856.15;76.57;;;;;;;;;;4742234;29;21116;-82
2024/01/26 05:34:10;;;;;;;868.83;78.57;;;;;;;;;;4758433;29;21081;-82
2024/01/26 05:36:43;;;;;;;851.97;75.88;;;;;;;;;;4742313;29;20050;-82
2024/01/26 05:39:10;;;;;;;845.53;75.75;;;;;;;;;;4742162;29;20038;-82
2024/01/26 05:41:37;;;;;;;892.28;80.57;;;;;;;;;;4756125;29;20101;-82
2024/01/26 05:44:04;;;;;;;869.05;78.13;;;;;;;;;;4724631;29;20134;-83
2024/01/26 05:46:31;;;;;;;868.42;78.65;;;;;;;;;;4738441;29;20110;-82
2024/01/26 05:48:58;;;;;;;847.65;75.72;;;;;;;;;;4725869;29;20065;-83
2024/01/26 05:51:25;;;;;;;808.83;71.18;;;;;;;;;;4745646;29;21397;-82
2024/01/26 05:53:52;;;;;;;813.28;72.07;;;;;;;;;;4729919;29;20088;-83
2024/01/26 05:56:19;;;;;;;826.13;73.85;;;;;;;;;;4737721;29;20045;-82
2024/01/26 05:58:46;;;;;;;812.10;71.85;;;;;;;;;;4745067;29;20999;-82
2024/01/26 06:01:12;;;;;;;840.58;76.25;;;;;;;;;;4745666;29;20045;-82
2024/01/26 06:03:39;;;;;;;862.35;78.38;;;;;;;;;;4757174;29;20076;-83
2024/01/26 06:06:07;;;;;;;831.63;74.43;;;;;;;;;;4746015;29;20049;-82
2024/01/26 06:08:35;;;;;;;828.53;74.78;;;;;;;;;;4748441;29;20046;-82
2024/01/26 06:11:04;;;;;;;852.33;77.03;;;;;;;;;;4761420;29;20961;-80
2024/01/26 06:13:31;;;;;;;933.20;85.93;;;;;;;;;;4761732;29;20824;-82
2024/01/26 06:15:58;;;;;;;417.65;35.13;;;;;;;;;;4765940;29;20103;-84
2024/01/26 06:18:25;;;;;;;461.42;36.72;;;;;;;;;;4787362;29;20148;-87
2024/01/26 06:20:52;;;;;;;318.27;24.88;;;;;;;;;;4808211;29;20055;-86
2024/01/26 06:23:19;;;;;;;214.80;15.98;;;;;;;;;;4816581;29;20097;-85
2024/01/26 06:25:46;;;;;;;277.45;21.73;;;;;;;;;;4808980;29;20049;-85
2024/01/26 06:28:13;;;;;;;688.63;58.80;;;;;;;;;;4782592;29;20061;-87
2024/01/26 06:30:39;;;;;;;530.03;41.13;;;;;;;;;;4809158;29;21056;-86
2024/01/26 06:33:06;;;;;;;749.60;64.78;;;;;;;;;;4800524;29;20924;-85
2024/01/26 06:35:33;;;;;;;767.50;67.57;;;;;;;;;;4771882;29;20038;-85
2024/01/26 06:38:00;;;;;;;696.50;59.58;;;;;;;;;;4766281;29;20033;-85
2024/01/26 06:40:26;;;;;;;843.97;74.78;;;;;;;;;;4775415;29;20136;-86
2024/01/26 06:42:53;;;;;;;682.53;57.40;;;;;;;;;;4777512;29;20048;-87
2024/01/26 06:45:20;;;;;;;575.05;45.72;;;;;;;;;;4785132;29;20069;-88
2024/01/26 06:47:47;;;;;;;814.72;71.72;;;;;;;;;;4783731;29;20054;-84
2024/01/26 06:50:14;;;;;;;837.13;76.18;;;;;;;;;;4738601;29;20053;-87
2024/01/26 06:52:40;;;;;;;790.22;69.53;;;;;;;;;;4770840;29;21070;-80
2024/01/26 06:55:07;;;;;;;938.72;87.05;;;;;;;;;;4726061;29;20657;-87
2024/01/26 06:57:34;;;;;;;1543.03;169.60;;;;;;;;;;4694216;29;20049;-85
2024/01/26 07:00:01;;;;;;;777.65;68.15;;;;;;;;;;4782563;29;20113;-88
2024/01/26 07:02:28;;;;;;;885.83;79.57;;;;;;;;;;4757952;29;20109;-88
2024/01/26 07:04:58;;;;;;;573.42;49.08;;;;;;;;;;4777314;29;20068;-81
2024/01/26 07:07:25;;;;;;;57.22;4.68;;;;;;;;;;4809418;29;20058;-87
2024/01/26 07:09:52;;;;;;;28.38;2.92;;;;;;;;;;4847615;29;20045;-86
2024/01/26 07:12:19;;;;;;;49.58;3.85;;;;;;;;;;4860368;29;20389;-88
2024/01/26 07:14:46;;;;;;;32.67;3.58;;;;;;;;;;4860866;29;20044;-87
2024/01/26 07:17:13;;;;;;;16.00;2.80;;;;;;;;;;4860868;29;20443;-86
2024/01/26 07:19:40;;;;;;;45.78;5.15;;;;;;;;;;4859784;29;20500;-87
2024/01/26 07:22:06;;;;;;;40.92;3.88;;;;;;;;;;4861179;29;20037;-87
2024/01/26 07:24:33;;;;;;;12.32;2.47;;;;;;;;;;4862466;29;20442;-86
2024/01/26 07:26:59;;;;;;;34.10;3.65;;;;;;;;;;4861165;29;20385;-87
2024/01/26 07:29:26;;;;;;;56.95;4.40;;;;;;;;;;4858029;29;20106;-87
2024/01/26 07:31:53;;;;;;;51.30;4.20;;;;;;;;;;4858020;29;20177;-86
2024/01/26 07:34:20;;;;;;;44.75;4.10;;;;;;;;;;4861234;29;20132;-86
2024/01/26 07:36:46;;;;;;;60.80;4.90;;;;;;;;;;4859599;29;20044;-86
2024/01/26 07:39:13;;;;;;;43.03;3.90;;;;;;;;;;4860819;29;20071;-86
2024/01/26 07:41:40;;;;;;;25.23;3.03;;;;;;;;;;4860597;29;20481;-86
2024/01/26 07:44:07;;;;;;;58.70;4.55;;;;;;;;;;4840195;29;20495;-88
2024/01/26 07:46:34;;;;;;;38.80;3.53;;;;;;;;;;4861273;29;20037;-86
2024/01/26 07:49:03;;;;;;;36.55;3.70;;;;;;;;;;4845000;29;20844;-86
2024/01/26 07:51:30;;;;;;;37.50;3.35;;;;;;;;;;4859758;29;20038;-83
2024/01/26 07:53:57;;;;;;;13.20;2.03;;;;;;;;;;4861668;29;20041;-86
2024/01/26 07:56:24;;;;;;;23.55;2.70;;;;;;;;;;4855861;29;20120;-86
2024/01/26 07:58:50;;;;;;;44.20;3.85;;;;;;;;;;4860776;29;20049;-86
2024/01/26 08:01:18;;;;;;;23.73;3.25;;;;;;;;;;4861246;29;20052;-86
2024/01/26 08:03:45;;;;;;;25.45;3.22;;;;;;;;;;4859806;29;20053;-86
2024/01/26 08:06:14;;;;;;;58.67;4.55;;;;;;;;;;4860199;29;20044;-86
2024/01/26 08:08:41;;;;;;;43.30;4.28;;;;;;;;;;4859351;29;20065;-86
2024/01/26 08:11:09;;;;;;;30.15;2.72;;;;;;;;;;4857839;29;20148;-86
2024/01/26 08:13:35;;;;;;;69.15;5.93;;;;;;;;;;4842774;29;20064;-86
2024/01/26 08:16:03;;;;;;;14.68;2.58;;;;;;;;;;4858120;29;20042;-86
2024/01/26 08:18:30;;;;;;;38.38;3.63;;;;;;;;;;4859571;29;20041;-86
2024/01/26 08:20:57;;;;;;;41.25;3.72;;;;;;;;;;4860687;29;20058;-86
2024/01/26 08:23:24;;;;;;;40.65;3.30;;;;;;;;;;4854220;29;20120;-87
2024/01/26 08:25:51;;;;;;;17.98;2.03;;;;;;;;;;4858340;29;20125;-87
2024/01/26 08:28:18;;;;;;;91.50;5.90;;;;;;;;;;4842427;29;20442;-86
2024/01/26 08:30:47;;;;;;;53.13;4.07;;;;;;;;;;4857772;29;20469;-86
2024/01/26 08:33:14;;;;;;;35.30;2.70;;;;;;;;;;4858204;29;20553;-86
2024/01/26 08:35:41;;;;;;;60.50;4.22;;;;;;;;;;4843300;29;20048;-86
2024/01/26 08:38:09;;;;;;;75.38;4.80;;;;;;;;;;4842637;29;20523;-86
2024/01/26 08:40:36;;;;;;;46.42;3.85;;;;;;;;;;4859333;29;20545;-86
2024/01/26 08:43:02;;;;;;;54.70;4.65;;;;;;;;;;4840003;29;20144;-86
2024/01/26 08:45:29;;;;;;;72.45;5.00;;;;;;;;;;4844145;29;20054;-87
2024/01/26 08:47:58;;;;;;;11.73;2.05;;;;;;;;;;4843348;29;20040;-87
2024/01/26 08:50:25;;;;;;;45.22;3.92;;;;;;;;;;4855348;29;20038;-89
2024/01/26 08:52:54;;;;;;;66.53;4.72;;;;;;;;;;4843834;29;20136;-88
2024/01/26 08:55:22;;;;;;;24.75;2.85;;;;;;;;;;4860255;29;20033;-86
2024/01/26 08:57:51;;;;;;;15.98;2.17;;;;;;;;;;4859336;29;20053;-86
2024/01/26 09:00:19;;;;;;;117.88;9.43;;;;;;;;;;4857801;29;20093;-87
2024/01/26 09:02:47;;;;;;;67.15;5.40;;;;;;;;;;4859062;29;20069;-86
2024/01/26 09:05:15;;;;;;;48.22;4.78;;;;;;;;;;4858791;29;20054;-86
2024/01/26 09:07:42;;;;;;;73.75;6.07;;;;;;;;;;4860280;29;20086;-86
2024/01/26 09:10:10;;;;;;;75.65;6.75;;;;;;;;;;4858821;29;20482;-86
2024/01/26 09:12:37;;;;;;;19.60;3.65;;;;;;;;;;4841037;29;20042;-86
2024/01/26 09:15:04;;;;;;;56.63;5.22;;;;;;;;;;4841769;29;20468;-86
2024/01/26 09:17:31;;;;;;;61.78;5.60;;;;;;;;;;4840363;29;20045;-86
2024/01/26 09:19:58;;;;;;;31.48;3.88;;;;;;;;;;4843814;29;20039;-87
2024/01/26 09:22:27;;;;;;;19.10;2.63;;;;;;;;;;4842219;29;20041;-86
2024/01/26 09:24:54;;;;;;;78.95;5.38;;;;;;;;;;4828130;29;20045;-86
2024/01/26 09:27:21;;;;;;;22.70;2.67;;;;;;;;;;4843156;29;20393;-86
2024/01/26 09:29:49;;;;;;;74.38;5.20;;;;;;;;;;4842024;29;20050;-86
2024/01/26 09:32:16;;;;;;;46.28;3.97;;;;;;;;;;4859122;29;20037;-86
2024/01/26 09:34:44;;;;;;;56.47;4.15;;;;;;;;;;4827730;29;20354;-87
2024/01/26 09:37:11;;;;;;;65.68;5.05;;;;;;;;;;4835851;29;20430;-86
2024/01/26 09:39:38;;;;;;;87.65;6.13;;;;;;;;;;4842968;29;20040;-87
2024/01/26 09:42:05;;;;;;;24.50;3.38;;;;;;;;;;4842862;29;20111;-86
2024/01/26 09:44:32;;;;;;;59.00;4.93;;;;;;;;;;4842808;29;20076;-87
2024/01/26 09:47:00;;;;;;;71.45;5.32;;;;;;;;;;4840638;29;20046;-86
2024/01/26 09:49:28;;;;;;;70.82;5.38;;;;;;;;;;4838833;29;20546;-87
2024/01/26 09:51:56;;;;;;;14.68;3.05;;;;;;;;;;4858319;29;20037;-86
2024/01/26 09:54:23;;;;;;;58.10;5.93;;;;;;;;;;4840994;29;20541;-87
2024/01/26 09:56:51;;;;;;;58.72;5.57;;;;;;;;;;4856954;29;20048;-86
2024/01/26 09:59:17;;;;;;;20.50;3.30;;;;;;;;;;4858366;29;20037;-86
2024/01/26 10:01:45;;;;;;;56.97;5.78;;;;;;;;;;4839397;29;20701;-87
2024/01/26 10:04:12;;;;;;;52.17;4.63;;;;;;;;;;4825834;29;20056;-87
2024/01/26 10:06:39;;;;;;;29.00;3.05;;;;;;;;;;4858771;29;20150;-87
2024/01/26 10:09:10;;;;;;;31.67;3.83;;;;;;;;;;4858643;29;20061;-86
2024/01/26 10:11:37;;;;;;;73.28;6.60;;;;;;;;;;4857254;29;20074;-86
2024/01/26 10:14:03;;;;;;;17.15;2.45;;;;;;;;;;4858958;29;20094;-86
2024/01/26 10:16:30;;;;;;;15.13;2.22;;;;;;;;;;4854936;29;20470;-86
2024/01/26 10:18:57;;;;;;;31.48;3.60;;;;;;;;;;4856924;29;20120;-87
2024/01/26 10:21:24;;;;;;;25.65;3.97;;;;;;;;;;4858870;29;20093;-87
2024/01/26 10:23:52;;;;;;;14.77;1.98;;;;;;;;;;4858102;29;20531;-86
2024/01/26 10:26:19;;;;;;;61.92;5.50;;;;;;;;;;4857665;29;20507;-86
2024/01/26 10:28:48;;;;;;;51.50;4.72;;;;;;;;;;4855162;29;20057;-86
2024/01/26 10:31:15;;;;;;;29.60;4.28;;;;;;;;;;4857729;29;20125;-86
2024/01/26 10:33:44;;;;;;;45.95;5.32;;;;;;;;;;4857790;29;20396;-86
2024/01/26 10:36:13;;;;;;;34.38;5.28;;;;;;;;;;4858104;29;20094;-86
2024/01/26 10:38:40;;;;;;;32.38;4.40;;;;;;;;;;4856544;29;20038;-86
2024/01/26 10:41:09;;;;;;;61.10;5.40;;;;;;;;;;4841439;29;20504;-87
2024/01/26 10:43:35;;;;;;;51.35;5.35;;;;;;;;;;4857188;29;20033;-86
2024/01/26 10:46:02;;;;;;;21.05;3.78;;;;;;;;;;4858670;29;20417;-87
2024/01/26 10:48:29;;;;;;;20.52;3.13;;;;;;;;;;4857766;29;20033;-87
2024/01/26 10:50:58;;;;;;;49.45;5.28;;;;;;;;;;4841764;29;20098;-86
2024/01/26 10:53:26;;;;;;;26.65;3.30;;;;;;;;;;4857260;29;20492;-86
2024/01/26 10:55:54;;;;;;;36.58;5.13;;;;;;;;;;4854201;29;20606;-87
2024/01/26 10:58:20;;;;;;;52.03;5.40;;;;;;;;;;4857460;29;20041;-86
2024/01/26 11:00:47;;;;;;;35.88;4.65;;;;;;;;;;4858046;29;20486;-86
2024/01/26 11:03:16;;;;;;;34.25;3.97;;;;;;;;;;4827225;29;20044;-86
2024/01/26 11:05:50;;;;;;;52.75;5.80;;;;;;;;;;4851197;29;20053;-87
2024/01/26 11:08:21;;;;;;;73.95;7.18;;;;;;;;;;4856861;29;20045;-86
2024/01/26 11:10:50;;;;;;;53.50;5.38;;;;;;;;;;4838642;29;20121;-87
2024/01/26 11:13:17;;;;;;;34.67;4.20;;;;;;;;;;4856383;29;20042;-86
2024/01/26 11:15:45;;;;;;;53.80;6.35;;;;;;;;;;4855955;29;20055;-86
2024/01/26 11:18:24;;;;;;;43.33;5.95;;;;;;;;;;4854182;29;20038;-86
2024/01/26 11:20:52;;;;;;;65.25;6.50;;;;;;;;;;4856676;29;20489;-86
2024/01/26 11:23:19;;;;;;;68.20;7.13;;;;;;;;;;4854570;29;20053;-86
2024/01/26 11:25:47;;;;;;;38.40;4.65;;;;;;;;;;4856402;29;20485;-86
2024/01/26 11:28:17;;;;;;;80.35;9.13;;;;;;;;;;4824993;29;20042;-87
2024/01/26 11:30:51;;;;;;;38.90;10.52;;;;;;;;;;4839946;29;20044;-86
2024/01/26 11:33:19;;;;;;;29.60;5.68;;;;;;;;;;4856702;29;20094;-86
2024/01/26 11:35:46;;;;;;;42.58;7.72;;;;;;;;;;4858333;29;20446;-86
2024/01/26 11:38:13;;;;;;;68.15;7.70;;;;;;;;;;4839908;29;20029;-86
2024/01/26 11:40:40;;;;;;;78.68;8.07;;;;;;;;;;4854412;29;20552;-87
2024/01/26 11:43:07;;;;;;;22.95;5.28;;;;;;;;;;4838419;29;20165;-86
2024/01/26 11:45:42;;;;;;;56.08;6.05;;;;;;;;;;4857741;29;20036;-86
2024/01/26 11:48:10;;;;;;;74.40;6.68;;;;;;;;;;4842245;29;20394;-87
2024/01/26 11:50:37;;;;;;;27.13;4.00;;;;;;;;;;4841703;29;20041;-86
2024/01/26 11:53:05;;;;;;;64.70;6.15;;;;;;;;;;4843915;29;20124;-88
2024/01/26 11:55:32;;;;;;;48.63;5.50;;;;;;;;;;4844017;29;20089;-87
2024/01/26 11:57:59;;;;;;;17.70;3.17;;;;;;;;;;4833016;29;20037;-86
2024/01/26 12:00:29;;;;;;;36.72;4.53;;;;;;;;;;4839495;29;20041;-89
2024/01/26 12:02:56;;;;;;;34.33;4.03;;;;;;;;;;4840867;29;20032;-86
2024/01/26 12:05:26;;;;;;;46.20;4.93;;;;;;;;;;4842666;29;20050;-87
2024/01/26 12:07:53;;;;;;;52.45;4.88;;;;;;;;;;4860141;29;20409;-86
2024/01/26 12:10:20;;;;;;;88.10;14.35;;;;;;;;;;4828776;29;20077;-86
2024/01/26 12:12:49;;;;;;;81.82;10.85;;;;;;;;;;4843350;29;20045;-86
2024/01/26 12:15:16;;;;;;;66.90;6.50;;;;;;;;;;4839469;29;20069;-86
2024/01/26 12:17:46;;;;;;;126.75;10.18;;;;;;;;;;4838827;29;20524;-87
2024/01/26 12:20:13;;;;;;;95.20;8.18;;;;;;;;;;4839333;29;20053;-87
2024/01/26 12:22:42;;;;;;;34.80;4.80;;;;;;;;;;4859707;29;20161;-86
2024/01/26 12:25:12;;;;;;;75.00;7.40;;;;;;;;;;4829909;29;20034;-86
2024/01/26 12:27:42;;;;;;;106.65;8.32;;;;;;;;;;4792395;29;20041;-87
2024/01/26 12:30:09;;;;;;;514.95;45.30;;;;;;;;;;4849651;29;20057;-87
2024/01/26 12:32:37;;;;;;;70.80;7.70;;;;;;;;;;4841521;29;20042;-87
2024/01/26 12:35:05;;;;;;;65.63;8.40;;;;;;;;;;4803033;29;20037;-92
2024/01/26 12:37:32;;;;;;;65.55;6.95;;;;;;;;;;4842620;29;20455;-87
2024/01/26 12:39:59;;;;;;;63.45;5.93;;;;;;;;;;4857856;29;20053;-87
2024/01/26 12:42:27;;;;;;;57.72;4.95;;;;;;;;;;4846185;29;20044;-86
2024/01/26 12:44:56;;;;;;;140.63;11.57;;;;;;;;;;4856138;29;20045;-88
2024/01/26 12:47:23;;;;;;;127.13;10.80;;;;;;;;;;4837354;29;20053;-90
2024/01/26 12:49:52;;;;;;;277.88;24.80;;;;;;;;;;4809853;29;20084;-89
2024/01/26 12:52:20;;;;;;;202.55;18.63;;;;;;;;;;4845617;29;20624;-86
2024/01/26 12:54:52;;;;;;;85.88;6.82;;;;;;;;;;4841067;29;20045;-87
2024/01/26 12:57:19;;;;;;;86.95;7.15;;;;;;;;;;4837501;29;20048;-87
2024/01/26 12:59:46;;;;;;;66.63;6.43;;;;;;;;;;4832218;29;20042;-89
2024/01/26 13:02:12;;;;;;;301.48;24.60;;;;;;;;;;4843542;29;21110;-86
2024/01/26 13:04:39;;;;;;;104.07;9.30;;;;;;;;;;4842905;29;20114;-91
2024/01/26 13:07:07;;;;;;;42.70;4.70;;;;;;;;;;4854561;29;20049;-87
2024/01/26 13:09:34;;;;;;;54.85;5.55;;;;;;;;;;4855746;29;20042;-86
2024/01/26 13:12:03;;;;;;;15.05;3.20;;;;;;;;;;4853365;29;20128;-87
2024/01/26 13:14:29;;;;;;;222.32;17.25;;;;;;;;;;4839837;29;20037;-88
2024/01/26 13:16:56;;;;;;;119.82;9.10;;;;;;;;;;4827728;29;20607;-88
2024/01/26 13:19:23;;;;;;;101.10;8.75;;;;;;;;;;4825365;29;20049;-87
2024/01/26 13:21:50;;;;;;;32.05;3.63;;;;;;;;;;4832809;29;20442;-85
2024/01/26 13:24:17;;;;;;;30.17;3.75;;;;;;;;;;4854279;29;20040;-86
2024/01/26 13:26:44;;;;;;;39.08;4.45;;;;;;;;;;4853512;29;20044;-87
2024/01/26 13:29:11;;;;;;;47.88;4.55;;;;;;;;;;4858036;29;20046;-87
2024/01/26 13:31:38;;;;;;;81.55;6.47;;;;;;;;;;4847847;29;20038;-89
2024/01/26 13:34:05;;;;;;;25.40;3.53;;;;;;;;;;4837362;29;20397;-86
2024/01/26 13:36:32;;;;;;;83.05;7.57;;;;;;;;;;4845642;29;20048;-90
2024/01/26 13:38:59;;;;;;;118.95;9.77;;;;;;;;;;4846906;29;20424;-87
2024/01/26 13:41:26;;;;;;;36.80;4.50;;;;;;;;;;4852178;29;20305;-86
2024/01/26 13:43:52;;;;;;;37.15;4.45;;;;;;;;;;4842238;29;20444;-86
2024/01/26 13:46:19;;;;;;;55.53;6.32;;;;;;;;;;4851462;29;20044;-88
2024/01/26 13:48:46;;;;;;;79.05;8.18;;;;;;;;;;4834624;29;20552;-88
2024/01/26 13:51:13;;;;;;;35.78;4.65;;;;;;;;;;4856876;29;20050;-87
2024/01/26 13:53:39;;;;;;;47.42;5.85;;;;;;;;;;4859263;29;20530;-87
2024/01/26 13:56:06;;;;;;;50.00;5.70;;;;;;;;;;4857871;29;20486;-86
2024/01/26 13:58:33;;;;;;;212.57;16.92;;;;;;;;;;4850515;29;20038;-91
2024/01/26 14:00:59;;;;;;;69.40;8.38;;;;;;;;;;4845228;29;20069;-89
2024/01/26 14:03:26;;;;;;;53.22;6.25;;;;;;;;;;4856128;29;20517;-86
2024/01/26 14:05:53;;;;;;;43.85;6.10;;;;;;;;;;4840792;29;20100;-87
2024/01/26 14:08:20;;;;;;;69.30;7.97;;;;;;;;;;4858495;29;20049;-87
2024/01/26 14:10:47;;;;;;;46.35;6.35;;;;;;;;;;4838676;29;20118;-88
2024/01/26 14:13:14;;;;;;;44.90;5.45;;;;;;;;;;4838537;29;20425;-88
2024/01/26 14:15:40;;;;;;;61.50;7.15;;;;;;;;;;4841948;29;20052;-86
2024/01/26 14:18:07;;;;;;;81.90;8.55;;;;;;;;;;4851756;29;20498;-87
2024/01/26 14:20:35;;;;;;;157.40;14.85;;;;;;;;;;4842717;29;20045;-88